Time;durP1;ratioP1;P1;durP2;ratioP2;P2;SDS_P1;SDS_P2;PMS_P1;PMS_P2;Temp;Humidity;BMP_temperature;BMP_pressure;BME280_temperature;BME280_humidity;BME280_pressure;Samples;Min_cycle;Max_cycle;Signal;HPM_P1;HPM_P2
2023/06/08 00:00:31;;;;;;;5.87;5.40;;;14.80;96.30;;;;;;5072269;28;21029;-67
2023/06/08 00:03:04;;;;;;;6.30;5.80;;;14.80;95.70;;;;;;5071927;28;20856;-67
2023/06/08 00:05:43;;;;;;;7.40;5.70;;;14.70;95.60;;;;;;5072073;28;20965;-67
2023/06/08 00:08:12;;;;;;;6.93;6.10;;;14.60;96.40;;;;;;5072037;28;20452;-67
2023/06/08 00:10:42;;;;;;;6.83;6.23;;;14.60;96.10;;;;;;5071993;28;20554;-67
2023/06/08 00:13:11;;;;;;;5.60;5.10;;;14.60;96.80;;;;;;5072089;28;20435;-67
2023/06/08 00:15:39;;;;;;;6.53;5.80;;;14.70;97.10;;;;;;5072123;28;20497;-68
2023/06/08 00:18:08;;;;;;;13.03;6.47;;;14.70;97.40;;;;;;5072115;28;20490;-67
2023/06/08 00:20:39;;;;;;;8.47;5.93;;;14.60;98.10;;;;;;5072115;28;20525;-67
2023/06/08 00:23:07;;;;;;;6.57;5.97;;;14.50;98.30;;;;;;5071457;28;20443;-68
2023/06/08 00:25:35;;;;;;;7.37;5.80;;;14.40;98.20;;;;;;5072057;28;20442;-68
2023/06/08 00:28:03;;;;;;;7.87;6.10;;;14.40;98.50;;;;;;5071791;28;20475;-68
2023/06/08 00:30:31;;;;;;;6.37;5.77;;;14.50;97.40;;;;;;5071621;28;20834;-68
2023/06/08 00:32:59;;;;;;;7.30;5.53;;;14.40;97.50;;;;;;5071251;28;20493;-68
2023/06/08 00:35:27;;;;;;;10.73;6.33;;;14.30;97.90;;;;;;5071472;28;20485;-68
2023/06/08 00:37:56;;;;;;;15.73;6.30;;;14.20;98.60;;;;;;5071252;28;20439;-68
2023/06/08 00:40:24;;;;;;;15.33;5.90;;;14.10;99.80;;;;;;5071125;28;20451;-68
2023/06/08 00:42:52;;;;;;;12.20;5.93;;;14.10;99.60;;;;;;5071144;28;20522;-68
2023/06/08 00:45:20;;;;;;;11.43;6.00;;;14.10;99.00;;;;;;5071506;28;20470;-68
2023/06/08 00:47:48;;;;;;;14.27;6.67;;;14.10;98.50;;;;;;5071327;28;20443;-68
2023/06/08 00:50:17;;;;;;;8.13;5.90;;;14.10;99.20;;;;;;5071065;28;20458;-68
2023/06/08 00:52:45;;;;;;;7.00;6.30;;;14.00;99.90;;;;;;5071000;28;20449;-68
2023/06/08 00:55:19;;;;;;;6.67;5.97;;;14.00;99.90;;;;;;5070777;28;20510;-68
2023/06/08 00:57:48;;;;;;;7.47;6.10;;;13.80;99.90;;;;;;5071225;28;20538;-68
2023/06/08 01:00:17;;;;;;;10.23;5.97;;;13.70;99.90;;;;;;5070967;28;20463;-68
2023/06/08 01:02:45;;;;;;;6.80;6.20;;;13.70;99.90;;;;;;5070626;28;21013;-68
2023/06/08 01:05:16;;;;;;;6.93;6.10;;;13.60;99.90;;;;;;5070386;28;20504;-69
2023/06/08 01:07:53;;;;;;;6.50;6.00;;;13.60;99.90;;;;;;5070834;28;20439;-68
2023/06/08 01:10:29;;;;;;;5.70;5.20;;;13.50;99.90;;;;;;5070705;28;20463;-67
2023/06/08 01:13:04;;;;;;;7.17;6.47;;;13.50;99.90;;;;;;5070464;28;20446;-68
2023/06/08 01:15:37;;;;;;;7.20;6.60;;;13.50;99.90;;;;;;5070393;28;20565;-68
2023/06/08 01:18:07;;;;;;;6.50;5.90;;;13.50;99.90;;;;;;5070807;28;20546;-68
2023/06/08 01:20:46;;;;;;;7.50;6.80;;;13.40;99.90;;;;;;5070565;28;20459;-68
2023/06/08 01:23:34;;;;;;;7.27;6.57;;;13.40;99.90;;;;;;5070198;28;20816;-68
2023/06/08 01:26:05;;;;;;;7.37;6.67;;;13.30;99.90;;;;;;5070456;28;20478;-68
2023/06/08 01:28:34;;;;;;;6.93;6.23;;;13.30;99.90;;;;;;5070711;28;20442;-68
2023/06/08 01:31:03;;;;;;;7.43;6.83;;;13.40;99.90;;;;;;5070339;28;20462;-68
2023/06/08 01:33:32;;;;;;;7.70;7.00;;;13.40;99.90;;;;;;5070178;28;20445;-67
2023/06/08 01:36:06;;;;;;;6.77;6.17;;;13.50;99.90;;;;;;5070222;28;20516;-67
2023/06/08 01:38:44;;;;;;;7.97;7.20;;;13.40;99.90;;;;;;5070171;28;20501;-67
2023/06/08 01:41:21;;;;;;;7.70;7.00;;;13.40;99.90;;;;;;5070275;28;20541;-67
2023/06/08 01:43:51;;;;;;;7.70;6.90;;;13.30;99.90;;;;;;5069930;28;20431;-67
2023/06/08 01:46:21;;;;;;;6.87;6.37;;;13.30;99.90;;;;;;5070022;28;20436;-68
2023/06/08 01:48:51;;;;;;;7.40;6.70;;;13.10;99.90;;;;;;5069929;28;20961;-68
2023/06/08 01:51:20;;;;;;;9.40;5.80;;;13.00;99.90;;;;;;5070142;28;20440;-67
2023/06/08 01:53:48;;;;;;;6.60;6.10;;;13.00;99.90;;;;;;5069750;28;20447;-68
2023/06/08 01:56:18;;;;;;;7.83;7.03;;;13.10;99.90;;;;;;5069841;28;20491;-68
2023/06/08 01:58:46;;;;;;;7.63;6.93;;;13.10;99.90;;;;;;5069844;28;20500;-68
2023/06/08 02:01:13;;;;;;;7.90;7.20;;;13.10;99.90;;;;;;5069362;28;20940;-67
2023/06/08 02:03:41;;;;;;;8.50;6.10;;;13.00;99.90;;;;;;5069084;28;20471;-67
2023/06/08 02:06:09;;;;;;;6.90;6.33;;;12.90;99.90;;;;;;5069777;28;20934;-68
2023/06/08 02:08:38;;;;;;;7.77;7.27;;;12.90;99.90;;;;;;5070144;28;20476;-66
2023/06/08 02:11:06;;;;;;;7.07;6.57;;;13.00;99.90;;;;;;5070171;28;20564;-67
2023/06/08 02:13:41;;;;;;;8.60;7.90;;;12.90;99.90;;;;;;5069542;28;20505;-68
2023/06/08 02:16:09;;;;;;;6.80;6.20;;;12.80;99.90;;;;;;5069323;28;20566;-68
2023/06/08 02:18:40;;;;;;;9.07;6.50;;;12.70;99.90;;;;;;5069683;28;20516;-68
2023/06/08 02:21:09;;;;;;;7.63;7.03;;;12.70;99.90;;;;;;5069977;28;20482;-67
2023/06/08 02:23:37;;;;;;;7.00;6.30;;;12.70;99.90;;;;;;5069407;28;20446;-68
2023/06/08 02:26:07;;;;;;;7.17;6.47;;;12.70;99.90;;;;;;5069781;28;20462;-68
2023/06/08 02:28:36;;;;;;;7.13;6.53;;;12.70;99.90;;;;;;5069892;28;20446;-67
2023/06/08 02:31:04;;;;;;;7.90;7.10;;;12.70;99.90;;;;;;5069810;28;20459;-68
2023/06/08 02:33:32;;;;;;;7.67;6.97;;;12.80;99.90;;;;;;5069350;28;20438;-67
2023/06/08 02:36:00;;;;;;;7.77;7.07;;;12.80;99.90;;;;;;5069883;28;20514;-67
2023/06/08 02:38:30;;;;;;;7.23;6.63;;;12.70;99.90;;;;;;5069789;28;20471;-67
2023/06/08 02:40:58;;;;;;;8.90;8.00;;;12.50;99.90;;;;;;5069970;28;20487;-67
2023/06/08 02:43:26;;;;;;;8.17;7.47;;;12.50;99.90;;;;;;5069442;28;20494;-68
2023/06/08 02:45:55;;;;;;;8.53;7.93;;;12.50;99.90;;;;;;5069493;28;21015;-67
2023/06/08 02:48:23;;;;;;;6.77;6.27;;;12.60;99.90;;;;;;5069471;28;20437;-67
2023/06/08 02:50:53;;;;;;;8.00;7.40;;;12.70;99.90;;;;;;5069457;28;20469;-67
2023/06/08 02:53:21;;;;;;;8.13;7.43;;;12.80;99.90;;;;;;5068846;28;20432;-67
2023/06/08 02:55:50;;;;;;;6.73;6.10;;;12.80;99.90;;;;;;5069351;28;20524;-67
2023/06/08 02:58:19;;;;;;;8.43;7.60;;;12.80;99.90;;;;;;5069347;28;20458;-68
2023/06/08 03:00:48;;;;;;;7.97;7.30;;;12.80;99.90;;;;;;5069402;28;20512;-67
2023/06/08 03:03:21;;;;;;;8.37;7.30;;;12.80;99.90;;;;;;5069060;28;20443;-67
2023/06/08 03:05:49;;;;;;;8.43;7.60;;;12.70;99.90;;;;;;5069241;28;20455;-67
2023/06/08 03:08:17;;;;;;;8.40;7.60;;;12.50;99.90;;;;;;5069468;28;20867;-67
2023/06/08 03:10:45;;;;;;;7.43;6.70;;;12.50;99.90;;;;;;5069292;28;20461;-67
2023/06/08 03:13:13;;;;;;;7.90;7.27;;;12.40;99.90;;;;;;5068795;28;20485;-67
2023/06/08 03:15:43;;;;;;;8.37;7.77;;;12.30;99.90;;;;;;5069145;28;20844;-67
2023/06/08 03:18:11;;;;;;;9.33;7.43;;;12.30;99.90;;;;;;5069181;28;20451;-67
2023/06/08 03:20:40;;;;;;;7.67;7.07;;;12.30;99.90;;;;;;5069168;28;20462;-67
2023/06/08 03:23:10;;;;;;;8.63;7.90;;;12.20;99.90;;;;;;5069017;28;20525;-67
2023/06/08 03:25:39;;;;;;;9.00;8.20;;;12.10;99.90;;;;;;5069228;28;20435;-67
2023/06/08 03:28:07;;;;;;;8.70;7.90;;;12.10;99.90;;;;;;5072329;28;20480;-67
2023/06/08 03:30:35;;;;;;;8.40;7.80;;;12.30;99.90;;;;;;5072630;28;20979;-68
2023/06/08 03:33:05;;;;;;;8.30;7.50;;;12.40;99.90;;;;;;5072425;28;20820;-68
2023/06/08 03:35:34;;;;;;;7.30;6.63;;;12.40;99.90;;;;;;5072746;28;20769;-68
2023/06/08 03:38:03;;;;;;;9.53;7.17;;;12.50;99.90;;;;;;5072926;28;21139;-68
2023/06/08 03:40:31;;;;;;;7.60;6.90;;;12.50;99.90;;;;;;5072614;28;20461;-67
2023/06/08 03:42:59;;;;;;;8.60;7.90;;;12.50;99.90;;;;;;5072487;28;20473;-68
2023/06/08 03:45:27;;;;;;;9.10;8.20;;;12.50;99.90;;;;;;5072643;28;20449;-67
2023/06/08 03:47:55;;;;;;;8.80;8.00;;;12.60;99.90;;;;;;5072857;28;20442;-67
2023/06/08 03:50:23;;;;;;;9.00;8.20;;;12.60;99.90;;;;;;5072719;28;20999;-67
2023/06/08 03:52:51;;;;;;;10.27;8.47;;;12.50;99.90;;;;;;5072615;28;20452;-68
2023/06/08 03:55:21;;;;;;;8.20;7.43;;;12.40;99.90;;;;;;5072648;28;20455;-67
2023/06/08 03:57:50;;;;;;;8.60;7.80;;;12.30;99.90;;;;;;5072393;28;20465;-67
2023/06/08 04:00:20;;;;;;;8.40;7.63;;;12.20;99.90;;;;;;5072869;28;20826;-67
2023/06/08 04:02:48;;;;;;;8.43;7.73;;;12.20;99.90;;;;;;5072130;28;20504;-68
2023/06/08 04:05:16;;;;;;;8.30;7.50;;;12.30;99.90;;;;;;5072588;28;20441;-67
2023/06/08 04:07:47;;;;;;;7.90;7.20;;;12.40;99.90;;;;;;5072472;28;20962;-68
2023/06/08 04:10:15;;;;;;;8.70;7.90;;;12.40;99.90;;;;;;5072614;28;20829;-68
2023/06/08 04:12:44;;;;;;;8.17;7.47;;;12.60;99.90;;;;;;5072278;28;20443;-67
2023/06/08 04:15:12;;;;;;;11.03;9.03;;;12.70;99.90;;;;;;5072468;28;20504;-67
2023/06/08 04:17:42;;;;;;;7.70;7.00;;;12.70;99.90;;;;;;5072255;28;20513;-66
2023/06/08 04:20:12;;;;;;;8.17;7.37;;;12.70;99.90;;;;;;5072100;28;20466;-67
2023/06/08 04:22:40;;;;;;;7.63;6.93;;;12.80;99.90;;;;;;5071950;28;20857;-68
2023/06/08 04:25:08;;;;;;;8.83;8.03;;;12.80;99.90;;;;;;5071912;28;20476;-68
2023/06/08 04:27:37;;;;;;;7.27;6.60;;;12.90;99.90;;;;;;5072031;28;20481;-67
2023/06/08 04:30:08;;;;;;;7.87;7.17;;;13.00;99.90;;;;;;5071665;28;20487;-68
2023/06/08 04:32:36;;;;;;;7.83;6.40;;;13.00;99.90;;;;;;5070136;28;20427;-67
2023/06/08 04:35:05;;;;;;;7.67;6.97;;;13.10;99.90;;;;;;5071558;28;20526;-67
2023/06/08 04:37:33;;;;;;;8.60;7.70;;;13.20;99.90;;;;;;5071264;28;20565;-68
2023/06/08 04:40:04;;;;;;;7.10;6.53;;;13.30;99.90;;;;;;5070942;28;20463;-67
2023/06/08 04:42:34;;;;;;;8.03;7.43;;;13.40;99.90;;;;;;5071367;28;20834;-67
2023/06/08 04:45:03;;;;;;;7.87;7.07;;;13.40;99.90;;;;;;5071541;28;20550;-68
2023/06/08 04:47:35;;;;;;;7.13;6.50;;;13.40;99.90;;;;;;5071373;28;20438;-67
2023/06/08 04:50:03;;;;;;;7.67;7.07;;;13.60;99.90;;;;;;5071332;28;20791;-67
2023/06/08 04:52:37;;;;;;;8.10;7.50;;;13.70;99.90;;;;;;5071194;28;20467;-67
2023/06/08 04:55:06;;;;;;;6.53;6.03;;;13.90;99.90;;;;;;5071289;28;20933;-68
2023/06/08 04:57:35;;;;;;;7.40;6.80;;;13.90;99.90;;;;;;5071413;28;20852;-67
2023/06/08 05:00:06;;;;;;;8.30;7.60;;;14.10;99.90;;;;;;5071309;28;20487;-68
2023/06/08 05:02:36;;;;;;;7.60;7.00;;;14.10;99.90;;;;;;5071054;28;20504;-67
2023/06/08 05:05:07;;;;;;;7.40;6.80;;;14.20;99.90;;;;;;5070834;28;20527;-68
2023/06/08 05:07:35;;;;;;;7.10;6.50;;;14.30;99.90;;;;;;5071046;28;20446;-68
2023/06/08 05:10:03;;;;;;;7.20;6.60;;;14.40;99.90;;;;;;5070707;28;20463;-67
2023/06/08 05:12:31;;;;;;;8.13;7.33;;;14.50;99.60;;;;;;5070611;28;20496;-67
2023/06/08 05:15:02;;;;;;;7.87;7.17;;;14.50;99.80;;;;;;5070447;28;20443;-68
2023/06/08 05:17:30;;;;;;;7.80;7.10;;;14.60;99.60;;;;;;5070505;28;20478;-68
2023/06/08 05:20:00;;;;;;;8.13;7.50;;;14.70;99.50;;;;;;5070507;28;20462;-68
2023/06/08 05:22:28;;;;;;;9.80;7.00;;;14.70;99.10;;;;;;5070628;28;20446;-68
2023/06/08 05:24:56;;;;;;;7.20;6.50;;;14.80;99.10;;;;;;5070512;28;20443;-68
2023/06/08 05:27:24;;;;;;;8.17;7.47;;;14.80;99.00;;;;;;5070518;28;20442;-68
2023/06/08 05:29:52;;;;;;;8.07;7.47;;;15.00;99.70;;;;;;5070755;28;20459;-68
2023/06/08 05:32:21;;;;;;;7.50;6.87;;;15.20;99.00;;;;;;5070575;28;20432;-68
2023/06/08 05:34:50;;;;;;;9.03;8.13;;;15.40;98.40;;;;;;5070394;28;20445;-68
2023/06/08 05:37:19;;;;;;;7.37;6.87;;;15.70;96.10;;;;;;5070678;28;20878;-69
2023/06/08 05:39:47;;;;;;;9.40;7.77;;;15.80;95.90;;;;;;5070424;28;20469;-68
2023/06/08 05:42:15;;;;;;;7.00;6.50;;;16.10;96.70;;;;;;5070281;28;20450;-68
2023/06/08 05:44:43;;;;;;;7.67;7.07;;;16.30;95.20;;;;;;5070075;28;20489;-68
2023/06/08 05:47:11;;;;;;;7.90;7.30;;;16.50;95.60;;;;;;5070319;28;20443;-68
2023/06/08 05:49:39;;;;;;;8.53;7.67;;;16.70;93.90;;;;;;5069589;28;20562;-68
2023/06/08 05:52:07;;;;;;;8.67;7.97;;;16.90;93.60;;;;;;5069726;28;20474;-68
2023/06/08 05:54:37;;;;;;;7.30;6.80;;;16.90;93.10;;;;;;5069518;28;20451;-68
2023/06/08 05:57:05;;;;;;;8.40;7.77;;;17.00;93.80;;;;;;5070047;28;20483;-68
2023/06/08 05:59:33;;;;;;;6.83;6.20;;;17.30;93.40;;;;;;5070086;28;20490;-68
2023/06/08 06:02:01;;;;;;;7.37;6.77;;;17.50;92.20;;;;;;5069808;28;20474;-69
2023/06/08 06:04:29;;;;;;;7.60;6.90;;;17.90;92.10;;;;;;5069710;28;20496;-69
2023/06/08 06:07:06;;;;;;;7.50;6.80;;;18.20;91.00;;;;;;5069806;28;20550;-69
2023/06/08 06:09:33;;;;;;;6.93;6.13;;;18.50;88.40;;;;;;5069806;28;21263;-69
2023/06/08 06:12:03;;;;;;;7.27;6.57;;;18.70;86.50;;;;;;5069887;28;20443;-69
2023/06/08 06:14:37;;;;;;;6.03;5.53;;;19.00;82.50;;;;;;5069655;28;20453;-68
2023/06/08 06:17:05;;;;;;;6.60;6.10;;;19.20;83.10;;;;;;5069673;28;20473;-68
2023/06/08 06:19:36;;;;;;;6.07;5.47;;;19.50;80.30;;;;;;5069614;28;20463;-67
2023/06/08 06:22:07;;;;;;;6.17;5.70;;;19.80;79.80;;;;;;5069523;28;20435;-67
2023/06/08 06:24:35;;;;;;;6.40;5.90;;;19.90;79.30;;;;;;5069588;28;20512;-67
2023/06/08 06:27:05;;;;;;;6.30;5.90;;;20.20;78.20;;;;;;5069673;28;20450;-68
2023/06/08 06:29:33;;;;;;;6.67;6.17;;;20.50;77.30;;;;;;5069648;28;20455;-68
2023/06/08 06:32:02;;;;;;;8.00;6.27;;;20.70;76.10;;;;;;5069480;28;20447;-67
2023/06/08 06:34:30;;;;;;;6.13;5.53;;;21.10;75.90;;;;;;5069360;28;20447;-68
2023/06/08 06:36:58;;;;;;;6.03;5.53;;;21.30;76.90;;;;;;5069554;28;20472;-67
2023/06/08 06:39:26;;;;;;;10.93;7.07;;;21.70;72.30;;;;;;5069707;28;20459;-67
2023/06/08 06:41:54;;;;;;;6.20;5.80;;;21.90;71.10;;;;;;5069684;28;20451;-68
2023/06/08 06:44:23;;;;;;;6.20;5.70;;;22.20;72.40;;;;;;5069255;28;20482;-68
2023/06/08 06:46:51;;;;;;;6.63;6.00;;;22.40;70.40;;;;;;5069855;28;20443;-68
2023/06/08 06:49:19;;;;;;;7.80;6.50;;;22.40;69.10;;;;;;5069775;28;20463;-68
2023/06/08 06:51:47;;;;;;;6.87;6.47;;;22.30;69.90;;;;;;5069632;28;20447;-68
2023/06/08 06:54:15;;;;;;;7.17;6.67;;;22.20;70.50;;;;;;5068983;28;20485;-67
2023/06/08 06:56:43;;;;;;;6.73;6.17;;;22.20;67.50;;;;;;5069572;28;20521;-67
2023/06/08 06:59:12;;;;;;;5.77;5.37;;;22.00;68.40;;;;;;5069180;28;20494;-68
2023/06/08 07:01:41;;;;;;;6.87;6.37;;;22.10;71.70;;;;;;5070600;28;20459;-68
2023/06/08 07:04:09;;;;;;;6.67;6.17;;;22.30;67.90;;;;;;5073081;28;20941;-68
2023/06/08 07:06:37;;;;;;;6.70;6.20;;;22.50;69.20;;;;;;5073336;28;21013;-68
2023/06/08 07:09:06;;;;;;;7.13;6.53;;;22.80;67.50;;;;;;5073363;28;20452;-68
2023/06/08 07:11:34;;;;;;;7.50;6.90;;;22.80;64.20;;;;;;5073248;28;20435;-68
2023/06/08 07:14:02;;;;;;;5.90;5.50;;;22.50;67.20;;;;;;5073238;28;20457;-68
2023/06/08 07:16:30;;;;;;;6.43;5.93;;;22.50;65.00;;;;;;5073513;28;20475;-67
2023/06/08 07:19:00;;;;;;;6.50;6.00;;;22.60;68.20;;;;;;5073449;28;20505;-69
2023/06/08 07:21:28;;;;;;;7.93;7.30;;;22.60;68.80;;;;;;5073275;28;20443;-68
2023/06/08 07:24:10;;;;;;;6.53;5.93;;;22.40;64.80;;;;;;5072596;28;20470;-68
2023/06/08 07:26:58;;;;;;;6.60;6.10;;;22.30;65.50;;;;;;5072884;28;20446;-68
2023/06/08 07:29:26;;;;;;;5.97;5.57;;;22.40;67.80;;;;;;5072829;28;20493;-68
2023/06/08 07:31:54;;;;;;;8.87;6.53;;;22.40;65.60;;;;;;5072919;28;20442;-68
2023/06/08 07:34:25;;;;;;;7.20;6.70;;;22.30;64.90;;;;;;5072337;28;20446;-68
2023/06/08 07:36:53;;;;;;;6.83;6.27;;;22.10;64.90;;;;;;5072667;28;20998;-68
2023/06/08 07:39:21;;;;;;;6.17;5.63;;;22.00;67.60;;;;;;5072570;28;20859;-68
2023/06/08 07:41:49;;;;;;;6.23;5.73;;;22.00;66.90;;;;;;5072791;28;20443;-68
2023/06/08 07:44:17;;;;;;;6.70;6.20;;;22.10;66.60;;;;;;5072137;28;20442;-68
2023/06/08 07:46:45;;;;;;;6.53;6.00;;;22.20;67.90;;;;;;5072525;28;20534;-68
2023/06/08 07:49:13;;;;;;;5.87;5.47;;;22.30;67.00;;;;;;5072318;28;20508;-68
2023/06/08 07:51:42;;;;;;;6.23;5.73;;;22.50;66.40;;;;;;5072551;28;20446;-67
2023/06/08 07:54:10;;;;;;;6.70;6.10;;;22.60;66.00;;;;;;5071952;28;21040;-67
2023/06/08 07:56:39;;;;;;;6.03;5.53;;;22.80;67.00;;;;;;5072473;28;20459;-67
2023/06/08 07:59:07;;;;;;;6.77;6.27;;;22.80;65.00;;;;;;5072219;28;20851;-67
2023/06/08 08:01:35;;;;;;;7.43;6.82;;;22.80;65.60;;;;;;5071292;28;20430;-68
2023/06/08 08:04:03;;;;;;;6.90;6.40;;;22.80;63.40;;;;;;5071876;28;20689;-68
2023/06/08 08:06:31;;;;;;;7.00;6.50;;;22.70;63.30;;;;;;5072146;28;20530;-68
2023/06/08 08:09:00;;;;;;;6.70;6.20;;;22.60;63.40;;;;;;5071986;28;20449;-68
2023/06/08 08:11:28;;;;;;;6.40;5.90;;;22.70;63.40;;;;;;5071771;28;20439;-69
2023/06/08 08:13:56;;;;;;;6.30;5.70;;;22.80;62.50;;;;;;5070378;28;20543;-68
2023/06/08 08:16:24;;;;;;;7.23;6.10;;;22.70;62.30;;;;;;5071902;28;20454;-69
2023/06/08 08:18:52;;;;;;;11.17;7.47;;;22.90;63.30;;;;;;5071794;28;20486;-68
2023/06/08 08:21:20;;;;;;;10.00;7.10;;;23.00;60.70;;;;;;5071781;28;20517;-68
2023/06/08 08:23:49;;;;;;;7.17;6.60;;;23.00;61.80;;;;;;5071560;28;20463;-69
2023/06/08 08:26:18;;;;;;;8.03;7.30;;;23.10;61.30;;;;;;5071672;28;20443;-66
2023/06/08 08:28:46;;;;;;;6.97;6.37;;;23.20;61.60;;;;;;5071617;28;20958;-68
2023/06/08 08:31:14;;;;;;;8.90;6.80;;;23.40;63.50;;;;;;5071879;28;20512;-67
2023/06/08 08:33:44;;;;;;;8.30;7.17;;;23.50;63.40;;;;;;5071258;28;20451;-67
2023/06/08 08:36:12;;;;;;;6.70;6.10;;;23.50;61.70;;;;;;5071534;28;20485;-67
2023/06/08 08:38:40;;;;;;;7.30;6.80;;;23.60;60.40;;;;;;5071739;28;20569;-68
2023/06/08 08:41:12;;;;;;;8.10;7.53;;;23.60;60.30;;;;;;5071460;28;20534;-68
2023/06/08 08:43:49;;;;;;;7.30;6.70;;;23.60;59.80;;;;;;5071198;28;20447;-67
2023/06/08 08:46:19;;;;;;;7.07;6.47;;;23.70;60.20;;;;;;5071595;28;20440;-67
2023/06/08 08:48:48;;;;;;;7.10;6.60;;;24.00;59.30;;;;;;5071191;28;20436;-68
2023/06/08 08:51:19;;;;;;;7.07;6.47;;;24.10;58.70;;;;;;5071319;28;20949;-68
2023/06/08 08:53:49;;;;;;;8.17;7.37;;;24.30;57.50;;;;;;5070759;28;21023;-67
2023/06/08 08:56:20;;;;;;;8.20;7.50;;;24.00;57.80;;;;;;5071393;28;21191;-68
2023/06/08 08:58:52;;;;;;;6.70;6.10;;;24.00;57.40;;;;;;5071044;28;20984;-68
2023/06/08 09:01:21;;;;;;;7.80;7.10;;;23.90;58.60;;;;;;5071186;28;20548;-67
2023/06/08 09:03:50;;;;;;;7.83;6.53;;;24.10;57.20;;;;;;5070581;28;20822;-67
2023/06/08 09:06:18;;;;;;;7.20;6.67;;;24.20;56.80;;;;;;5071051;28;20812;-67
2023/06/08 09:08:48;;;;;;;7.77;7.00;;;24.40;56.70;;;;;;5071035;28;20441;-67
2023/06/08 09:11:16;;;;;;;6.93;6.33;;;24.30;57.20;;;;;;5071106;28;20446;-68
2023/06/08 09:13:44;;;;;;;6.13;5.60;;;24.30;56.70;;;;;;5070681;28;20883;-67
2023/06/08 09:16:17;;;;;;;7.00;6.50;;;24.40;55.50;;;;;;5070964;28;20467;-68
2023/06/08 09:18:45;;;;;;;7.87;7.27;;;24.60;55.40;;;;;;5070137;28;20471;-67
2023/06/08 09:21:24;;;;;;;7.40;6.80;;;24.60;56.00;;;;;;5070938;28;20439;-67
2023/06/08 09:24:05;;;;;;;7.03;6.40;;;24.70;54.80;;;;;;5070661;28;20445;-68
2023/06/08 09:26:38;;;;;;;7.13;6.60;;;24.60;56.40;;;;;;5070744;28;20443;-67
2023/06/08 09:29:07;;;;;;;8.17;7.47;;;24.80;57.10;;;;;;5070538;28;20478;-67
2023/06/08 09:31:39;;;;;;;6.90;6.40;;;24.90;55.20;;;;;;5070828;28;21028;-68
2023/06/08 09:34:09;;;;;;;6.97;6.37;;;25.00;55.90;;;;;;5070595;28;20447;-67
2023/06/08 09:36:38;;;;;;;7.70;7.00;;;25.20;54.00;;;;;;5070839;28;20890;-68
2023/06/08 09:39:07;;;;;;;8.07;7.47;;;25.30;54.40;;;;;;5070295;28;20493;-68
2023/06/08 09:41:37;;;;;;;6.50;6.00;;;25.00;55.10;;;;;;5070445;28;20441;-68
2023/06/08 09:44:18;;;;;;;7.87;7.07;;;25.10;55.40;;;;;;5070197;28;20443;-69
2023/06/08 09:46:48;;;;;;;7.17;6.70;;;25.40;53.80;;;;;;5070510;28;20466;-68
2023/06/08 09:49:17;;;;;;;7.70;7.10;;;25.50;54.60;;;;;;5070313;28;20554;-69
2023/06/08 09:51:48;;;;;;;8.47;7.77;;;25.80;54.20;;;;;;5070390;28;20529;-68
2023/06/08 09:54:17;;;;;;;7.57;6.87;;;25.80;53.60;;;;;;5069932;28;20870;-68
2023/06/08 09:56:50;;;;;;;7.23;6.70;;;26.00;53.30;;;;;;5069955;28;20479;-68
2023/06/08 09:59:20;;;;;;;7.70;6.90;;;26.30;51.40;;;;;;5070078;28;21028;-68
2023/06/08 10:01:55;;;;;;;8.27;7.67;;;26.80;51.50;;;;;;5070143;28;20435;-70
2023/06/08 10:04:26;;;;;;;7.83;7.23;;;27.60;50.50;;;;;;5069555;28;20439;-70
2023/06/08 10:06:57;;;;;;;7.60;6.90;;;27.80;50.30;;;;;;5069954;28;20447;-68
2023/06/08 10:09:29;;;;;;;8.30;7.60;;;28.30;49.10;;;;;;5069839;28;20447;-68
2023/06/08 10:12:01;;;;;;;7.23;6.63;;;28.80;47.60;;;;;;5069958;28;20439;-68
2023/06/08 10:14:29;;;;;;;9.23;7.77;;;29.10;47.20;;;;;;5070006;28;20439;-68
2023/06/08 10:17:00;;;;;;;7.37;6.87;;;29.10;46.70;;;;;;5070123;28;20450;-68
2023/06/08 10:19:28;;;;;;;8.50;7.80;;;28.90;47.00;;;;;;5069953;28;20519;-67
2023/06/08 10:21:58;;;;;;;7.80;7.30;;;28.70;46.70;;;;;;5070261;28;20538;-67
2023/06/08 10:24:29;;;;;;;8.63;8.03;;;28.80;46.20;;;;;;5070202;28;20441;-68
2023/06/08 10:27:11;;;;;;;7.17;6.63;;;28.80;46.10;;;;;;5069931;28;20457;-69
2023/06/08 10:29:39;;;;;;;7.37;6.87;;;28.90;47.70;;;;;;5069836;28;20463;-69
2023/06/08 10:32:11;;;;;;;8.47;7.87;;;29.10;46.10;;;;;;5070033;28;20497;-68
2023/06/08 10:34:40;;;;;;;7.70;7.20;;;29.20;45.10;;;;;;5069721;28;20430;-68
2023/06/08 10:37:27;;;;;;;7.47;6.97;;;28.90;45.00;;;;;;5071609;28;20435;-68
2023/06/08 10:39:56;;;;;;;6.40;5.90;;;28.90;45.10;;;;;;5073542;28;20471;-68
2023/06/08 10:42:24;;;;;;;6.80;6.30;;;29.30;44.80;;;;;;5073464;28;21053;-68
2023/06/08 10:44:56;;;;;;;7.57;6.97;;;29.20;44.60;;;;;;5073976;28;20439;-68
2023/06/08 10:47:26;;;;;;;7.33;6.63;;;29.30;42.80;;;;;;5073867;28;20508;-69
2023/06/08 10:50:00;;;;;;;7.90;7.30;;;29.10;42.40;;;;;;5073626;28;20482;-68
2023/06/08 10:52:29;;;;;;;7.33;6.80;;;29.50;42.90;;;;;;5073122;28;20443;-69
2023/06/08 10:54:59;;;;;;;6.83;6.43;;;29.60;41.60;;;;;;5073289;28;20458;-68
2023/06/08 10:57:39;;;;;;;8.07;7.43;;;29.70;40.80;;;;;;5074184;28;20534;-69
2023/06/08 11:00:42;;;;;;;7.53;6.93;;;29.50;41.60;;;;;;5073488;28;20506;-68
2023/06/08 11:03:13;;;;;;;7.60;7.00;;;29.50;42.00;;;;;;5073282;28;20546;-69
2023/06/08 11:05:44;;;;;;;7.97;7.30;;;30.00;41.20;;;;;;5073571;28;20427;-69
2023/06/08 11:08:12;;;;;;;8.10;7.47;;;30.20;41.20;;;;;;5073204;28;20842;-68
2023/06/08 11:10:42;;;;;;;7.27;6.77;;;30.50;39.80;;;;;;5073084;28;20546;-69
2023/06/08 11:13:12;;;;;;;7.87;7.27;;;30.70;42.00;;;;;;5072774;28;20478;-68
2023/06/08 11:15:42;;;;;;;7.77;7.17;;;30.60;39.10;;;;;;5073435;28;20438;-69
2023/06/08 11:18:12;;;;;;;7.20;6.80;;;30.20;40.30;;;;;;5073100;28;20496;-69
2023/06/08 11:20:42;;;;;;;7.77;7.13;;;30.00;40.20;;;;;;5072862;28;20483;-69
2023/06/08 11:23:11;;;;;;;7.87;7.20;;;30.50;42.70;;;;;;5071779;28;20534;-69
2023/06/08 11:25:41;;;;;;;6.83;6.40;;;31.50;41.30;;;;;;5072819;28;20434;-70
2023/06/08 11:28:11;;;;;;;7.00;6.50;;;32.30;39.80;;;;;;5073019;28;20462;-69
2023/06/08 11:30:39;;;;;;;8.53;7.93;;;32.90;38.20;;;;;;5072836;28;20459;-70
2023/06/08 11:33:08;;;;;;;7.10;6.60;;;33.30;37.30;;;;;;5071727;28;20525;-70
2023/06/08 11:35:38;;;;;;;7.27;6.83;;;33.20;38.20;;;;;;5072739;28;20443;-69
2023/06/08 11:38:06;;;;;;;8.40;7.73;;;33.40;37.80;;;;;;5072744;28;20450;-69
2023/06/08 11:40:38;;;;;;;8.10;7.50;;;33.20;33.90;;;;;;5072501;28;20522;-69
2023/06/08 11:43:06;;;;;;;8.17;7.57;;;33.30;35.80;;;;;;5071583;28;20431;-69
2023/06/08 11:45:34;;;;;;;9.13;8.43;;;33.50;35.80;;;;;;5072873;28;20451;-69
2023/06/08 11:48:04;;;;;;;10.70;9.83;;;32.30;37.30;;;;;;5072914;28;20508;-68
2023/06/08 11:50:48;;;;;;;10.10;9.30;;;31.70;39.70;;;;;;5072994;28;20505;-68
2023/06/08 11:53:22;;;;;;;9.40;8.80;;;30.70;40.10;;;;;;5071459;28;20442;-69
2023/06/08 11:55:53;;;;;;;8.37;7.80;;;31.00;42.50;;;;;;5072821;28;20434;-69
2023/06/08 11:58:25;;;;;;;8.30;7.73;;;32.40;38.40;;;;;;5072663;28;20815;-67
2023/06/08 12:01:07;;;;;;;9.80;8.90;;;33.00;36.50;;;;;;5072209;28;20470;-68
2023/06/08 12:03:43;;;;;;;8.40;7.83;;;33.40;35.10;;;;;;5071374;28;20435;-69
2023/06/08 12:06:14;;;;;;;8.50;7.80;;;33.60;35.30;;;;;;5072201;28;20435;-69
2023/06/08 12:08:42;;;;;;;8.83;8.23;;;34.00;34.20;;;;;;5072122;28;21020;-68
2023/06/08 12:11:13;;;;;;;8.13;7.33;;;33.90;33.70;;;;;;5072118;28;20497;-69
2023/06/08 12:13:41;;;;;;;8.10;7.60;;;34.30;34.10;;;;;;5070842;28;20530;-69
2023/06/08 12:16:10;;;;;;;8.20;7.60;;;34.80;35.00;;;;;;5072077;28;20442;-69
2023/06/08 12:18:39;;;;;;;7.93;7.43;;;34.70;33.20;;;;;;5072129;28;20443;-69
2023/06/08 12:21:08;;;;;;;8.33;7.77;;;35.30;32.00;;;;;;5071778;28;20518;-68
2023/06/08 12:23:38;;;;;;;8.77;8.17;;;35.20;33.40;;;;;;5070660;28;20443;-68
2023/06/08 12:26:06;;;;;;;7.80;7.20;;;35.10;34.70;;;;;;5071718;28;20435;-69
2023/06/08 12:28:34;;;;;;;7.60;7.10;;;34.80;35.80;;;;;;5071893;28;20443;-68
2023/06/08 12:31:02;;;;;;;7.80;7.10;;;34.70;35.80;;;;;;5071399;28;21008;-68
2023/06/08 12:33:31;;;;;;;8.40;7.80;;;34.40;36.10;;;;;;5070454;28;20439;-68
2023/06/08 12:35:59;;;;;;;7.63;7.03;;;33.60;34.40;;;;;;5071650;28;20826;-69
2023/06/08 12:38:27;;;;;;;7.73;7.13;;;32.30;36.90;;;;;;5071497;28;20500;-69
2023/06/08 12:40:56;;;;;;;7.43;6.60;;;31.00;37.90;;;;;;5071285;28;20483;-68
2023/06/08 12:43:25;;;;;;;6.90;6.37;;;30.10;38.20;;;;;;5070483;28;20443;-68
2023/06/08 12:45:54;;;;;;;9.13;7.17;;;29.10;37.50;;;;;;5071508;28;20442;-68
2023/06/08 12:48:22;;;;;;;6.60;5.90;;;28.20;39.10;;;;;;5071172;28;21214;-69
2023/06/08 12:50:51;;;;;;;20.27;7.80;;;27.10;41.70;;;;;;5071286;28;20454;-68
2023/06/08 12:53:18;;;;;;;14.60;9.10;;;26.20;53.70;;;;;;5069632;28;20949;-67
2023/06/08 12:55:46;;;;;;;16.50;8.80;;;24.60;66.90;;;;;;5071035;28;20458;-66
2023/06/08 12:58:16;;;;;;;17.80;9.90;;;22.90;73.30;;;;;;5071020;28;20949;-67